Wetterdaten: Woche 01.02.16 - 07.02.16 (KW5)
Datum Zeit Temperatur Luftfeuchte Luftdruck Niederschlag Windrichtung Sonnenschein Solar Wind
01.02.2016 00:00 10,3 C 96 % 1016,0 hPa 0,0 l/m W-SW 0,00 h 0 W/m 33,0 km/h (5 Bft)
01.02.2016 01:00 10,5 C 95 % 1016,6 hPa 0,0 l/m W 0,00 h 0 W/m 31,0 km/h (5 Bft)
01.02.2016 02:00 10,8 C 95 % 1017,6 hPa 0,0 l/m W-SW 0,00 h 0 W/m 32,9 km/h (5 Bft)
01.02.2016 03:00 11,0 C 93 % 1018,7 hPa 0,0 l/m W-SW 0,00 h 0 W/m 36,3 km/h (5 Bft)
01.02.2016 04:00 11,0 C 92 % 1019,3 hPa 0,0 l/m W 0,00 h 0 W/m 38,2 km/h (5 Bft)
01.02.2016 05:00 11,0 C 91 % 1020,0 hPa 0,0 l/m W-SW 0,00 h 0 W/m 36,7 km/h (5 Bft)
01.02.2016 06:00 10,8 C 91 % 1020,4 hPa 0,0 l/m W 0,00 h 0 W/m 39,6 km/h (6 Bft)
01.02.2016 07:00 10,8 C 90 % 1021,7 hPa 0,0 l/m W 0,00 h 0 W/m 33,0 km/h (5 Bft)
01.02.2016 08:00 10,7 C 89 % 1022,3 hPa 0,0 l/m W 0,00 h 31 W/m 31,5 km/h (5 Bft)
01.02.2016 09:00 11,0 C 86 % 1022,6 hPa 0,0 l/m W-SW 0,00 h 66 W/m 35,7 km/h (5 Bft)
01.02.2016 10:00 11,6 C 82 % 1023,3 hPa 0,0 l/m W-SW 0,17 h 146 W/m 35,7 km/h (5 Bft)
01.02.2016 11:00 12,6 C 77 % 1023,9 hPa 0,0 l/m W-SW 0,58 h 296 W/m 34,5 km/h (5 Bft)
01.02.2016 12:00 12,6 C 76 % 1024,0 hPa 0,0 l/m W-SW 0,25 h 239 W/m 34,3 km/h (5 Bft)
01.02.2016 13:00 12,1 C 78 % 1024,0 hPa 0,0 l/m W-SW 0,00 h 96 W/m 30,2 km/h (5 Bft)
01.02.2016 14:00 11,5 C 78 % 1023,8 hPa 0,0 l/m W-SW 0,00 h 81 W/m 28,0 km/h (4 Bft)
01.02.2016 15:00 10,5 C 75 % 1023,8 hPa 0,0 l/m W 0,00 h 84 W/m 31,1 km/h (5 Bft)
01.02.2016 16:00 9,7 C 78 % 1023,6 hPa 0,0 l/m SW 0,00 h 24 W/m 24,3 km/h (4 Bft)
01.02.2016 17:00 9,5 C 80 % 1023,4 hPa 0,0 l/m SW 0,00 h 5 W/m 22,9 km/h (4 Bft)
01.02.2016 18:00 9,5 C 81 % 1022,9 hPa 0,0 l/m W-SW 0,00 h 0 W/m 32,5 km/h (5 Bft)
01.02.2016 19:00 9,4 C 83 % 1023,7 hPa 0,0 l/m W 0,00 h 0 W/m 21,9 km/h (4 Bft)
01.02.2016 20:00 8,9 C 82 % 1023,7 hPa 0,0 l/m W-SW 0,00 h 0 W/m 23,2 km/h (4 Bft)
01.02.2016 21:00 8,4 C 82 % 1023,8 hPa 0,0 l/m W-SW 0,00 h 0 W/m 22,8 km/h (4 Bft)
01.02.2016 22:00 8,1 C 81 % 1023,9 hPa 0,0 l/m W-SW 0,00 h 0 W/m 21,8 km/h (4 Bft)
01.02.2016 23:00 7,8 C 81 % 1024,0 hPa 0,0 l/m W-SW 0,00 h 0 W/m 17,6 km/h (3 Bft)
02.02.2016 00:00 7,5 C 83 % 1024,2 hPa 0,0 l/m SW 0,00 h 0 W/m 13,3 km/h (3 Bft)
02.02.2016 01:00 7,3 C 84 % 1024,5 hPa 0,0 l/m W-SW 0,00 h 0 W/m 15,8 km/h (3 Bft)
02.02.2016 02:00 7,3 C 85 % 1024,2 hPa 0,0 l/m W-SW 0,00 h 0 W/m 18,8 km/h (3 Bft)
02.02.2016 03:00 7,1 C 86 % 1023,7 hPa 0,0 l/m S-SW 0,00 h 0 W/m 8,3 km/h (2 Bft)
02.02.2016 04:00 7,1 C 87 % 1023,2 hPa 0,0 l/m SW 0,00 h 0 W/m 19,0 km/h (3 Bft)
02.02.2016 05:00 7,4 C 86 % 1022,8 hPa 0,0 l/m W-SW 0,00 h 0 W/m 19,4 km/h (3 Bft)
02.02.2016 06:00 7,3 C 86 % 1022,5 hPa 0,0 l/m SW 0,00 h 0 W/m 16,5 km/h (3 Bft)
02.02.2016 07:00 7,4 C 86 % 1022,1 hPa 0,0 l/m SW 0,00 h 0 W/m 20,8 km/h (4 Bft)
02.02.2016 08:00 7,3 C 86 % 1022,0 hPa 0,0 l/m SW 0,00 h 24 W/m 14,8 km/h (3 Bft)
02.02.2016 09:00 7,7 C 86 % 1021,6 hPa 0,0 l/m W-SW 0,00 h 73 W/m 19,4 km/h (3 Bft)
02.02.2016 10:00 8,5 C 84 % 1021,3 hPa 0,0 l/m W 0,25 h 171 W/m 23,5 km/h (4 Bft)
02.02.2016 11:00 9,6 C 80 % 1020,8 hPa 0,0 l/m W 0,83 h 275 W/m 25,2 km/h (4 Bft)
02.02.2016 12:00 9,9 C 78 % 1020,2 hPa 0,0 l/m W 0,67 h 361 W/m 27,9 km/h (4 Bft)
02.02.2016 13:00 10,1 C 77 % 1019,1 hPa 0,0 l/m W-SW 0,75 h 374 W/m 30,9 km/h (5 Bft)
02.02.2016 14:00 9,7 C 78 % 1018,5 hPa 0,0 l/m W-SW 0,67 h 226 W/m 33,8 km/h (5 Bft)
02.02.2016 15:00 9,8 C 77 % 1017,7 hPa 0,0 l/m W-SW 0,75 h 209 W/m 34,5 km/h (5 Bft)
02.02.2016 16:00 9,2 C 79 % 1017,3 hPa 0,0 l/m W-SW 0,00 h 36 W/m 26,8 km/h (4 Bft)
02.02.2016 17:00 9,0 C 81 % 1017,5 hPa 0,0 l/m W-SW 0,00 h 5 W/m 22,6 km/h (4 Bft)
02.02.2016 18:00 9,0 C 80 % 1017,7 hPa 0,0 l/m W-SW 0,00 h 0 W/m 24,9 km/h (4 Bft)
02.02.2016 19:00 8,7 C 78 % 1018,6 hPa 0,0 l/m W-SW 0,00 h 0 W/m 23,5 km/h (4 Bft)
02.02.2016 20:00 8,2 C 79 % 1018,7 hPa 0,0 l/m SW 0,00 h 0 W/m 20,4 km/h (4 Bft)
02.02.2016 21:00 7,9 C 82 % 1018,6 hPa 0,0 l/m SW 0,00 h 0 W/m 24,1 km/h (4 Bft)
02.02.2016 22:00 8,0 C 82 % 1018,7 hPa 0,0 l/m W-SW 0,00 h 0 W/m 21,2 km/h (4 Bft)
02.02.2016 23:00 8,1 C 81 % 1018,2 hPa 0,0 l/m W-SW 0,00 h 0 W/m 27,6 km/h (4 Bft)
03.02.2016 00:00 8,0 C 81 % 1018,3 hPa 0,0 l/m W-SW 0,00 h 0 W/m 24,4 km/h (4 Bft)
03.02.2016 01:00 7,9 C 81 % 1018,1 hPa 0,0 l/m W-SW 0,00 h 0 W/m 21,2 km/h (4 Bft)
03.02.2016 02:00 7,6 C 83 % 1018,2 hPa 0,0 l/m SW 0,00 h 0 W/m 16,9 km/h (3 Bft)
03.02.2016 03:00 5,6 C 90 % 1018,2 hPa 0,0 l/m N-NW 0,00 h 0 W/m 8,4 km/h (2 Bft)
03.02.2016 04:00 4,6 C 92 % 1017,4 hPa 0,2 l/m N 0,00 h 0 W/m 2,4 km/h (1 Bft)
03.02.2016 05:00 4,0 C 93 % 1016,5 hPa 0,4 l/m W-NW 0,00 h 0 W/m 5,5 km/h (1 Bft)
03.02.2016 06:00 3,4 C 93 % 1016,4 hPa 2,0 l/m NW 0,00 h 0 W/m 8,5 km/h (2 Bft)
03.02.2016 07:00 2,2 C 94 % 1016,5 hPa 0,6 l/m N-NW 0,00 h 0 W/m 2,8 km/h (1 Bft)
03.02.2016 08:00 1,4 C 95 % 1017,1 hPa 0,8 l/m W-SW 0,00 h 6 W/m 3,1 km/h (1 Bft)
03.02.2016 09:00 0,8 C 96 % 1017,4 hPa 0,2 l/m SW 0,00 h 16 W/m 8,3 km/h (2 Bft)
03.02.2016 10:00 0,7 C 97 % 1017,9 hPa 0,4 l/m SW 0,00 h 21 W/m 16,4 km/h (3 Bft)
03.02.2016 11:00 0,7 C 97 % 1018,3 hPa 0,2 l/m SW 0,00 h 38 W/m 11,7 km/h (2 Bft)
03.02.2016 12:00 1,0 C 98 % 1018,1 hPa 1,8 l/m SW 0,00 h 84 W/m 18,9 km/h (3 Bft)
03.02.2016 13:00 1,4 C 98 % 1017,7 hPa 1,0 l/m SW 0,00 h 92 W/m 19,4 km/h (3 Bft)
03.02.2016 14:00 2,2 C 98 % 1017,4 hPa 0,2 l/m W-SW 0,00 h 128 W/m 17,6 km/h (3 Bft)
03.02.2016 15:00 1,9 C 97 % 1017,9 hPa 1,0 l/m SW 0,00 h 44 W/m 9,4 km/h (2 Bft)
03.02.2016 16:00 1,4 C 97 % 1018,6 hPa 0,6 l/m W-SW 0,08 h 34 W/m 8,6 km/h (2 Bft)
03.02.2016 17:00 1,3 C 97 % 1019,4 hPa 0,2 l/m W-NW 0,00 h 5 W/m 19,0 km/h (3 Bft)
03.02.2016 18:00 1,2 C 95 % 1021,7 hPa 0,0 l/m W-NW 0,00 h 0 W/m 13,3 km/h (3 Bft)
03.02.2016 19:00 1,0 C 94 % 1023,6 hPa 0,0 l/m W-SW 0,00 h 0 W/m 11,3 km/h (2 Bft)
03.02.2016 20:00 0,8 C 92 % 1024,4 hPa 0,0 l/m SW 0,00 h 0 W/m 15,4 km/h (3 Bft)
03.02.2016 21:00 0,8 C 92 % 1025,0 hPa 0,0 l/m SW 0,00 h 0 W/m 12,9 km/h (3 Bft)
03.02.2016 22:00 0,9 C 93 % 1025,2 hPa 0,0 l/m W-SW 0,00 h 0 W/m 14,5 km/h (3 Bft)
03.02.2016 23:00 0,7 C 95 % 1025,4 hPa 0,0 l/m W-SW 0,00 h 0 W/m 7,5 km/h (2 Bft)
04.02.2016 00:00 0,7 C 95 % 1026,0 hPa 0,0 l/m W 0,00 h 0 W/m 13,0 km/h (3 Bft)
04.02.2016 01:00 0,6 C 93 % 1026,6 hPa 0,0 l/m W-NW 0,00 h 0 W/m 11,3 km/h (2 Bft)
04.02.2016 02:00 0,3 C 93 % 1027,4 hPa 0,0 l/m W 0,00 h 0 W/m 9,9 km/h (2 Bft)
04.02.2016 03:00 0,3 C 92 % 1028,1 hPa 0,0 l/m W 0,00 h 0 W/m 13,0 km/h (3 Bft)
04.02.2016 04:00 0,3 C 93 % 1028,1 hPa 0,0 l/m SW 0,00 h 0 W/m 10,5 km/h (2 Bft)
04.02.2016 05:00 0,2 C 94 % 1028,3 hPa 0,0 l/m SW 0,00 h 0 W/m 11,8 km/h (2 Bft)
04.02.2016 06:00 0,6 C 93 % 1027,8 hPa 0,0 l/m W-SW 0,00 h 0 W/m 19,4 km/h (3 Bft)
04.02.2016 07:00 0,7 C 92 % 1028,3 hPa 0,0 l/m W-SW 0,00 h 0 W/m 23,3 km/h (4 Bft)
04.02.2016 08:00 0,8 C 93 % 1028,7 hPa 0,0 l/m W-SW 0,00 h 15 W/m 26,4 km/h (4 Bft)
04.02.2016 09:00 1,2 C 92 % 1028,9 hPa 0,0 l/m W-SW 0,00 h 45 W/m 24,3 km/h (4 Bft)
04.02.2016 10:00 1,5 C 91 % 1029,0 hPa 0,0 l/m W-SW 0,17 h 136 W/m 24,8 km/h (4 Bft)
04.02.2016 11:00 1,8 C 90 % 1028,8 hPa 0,0 l/m W-SW 0,00 h 96 W/m 23,7 km/h (4 Bft)
04.02.2016 12:00 2,1 C 90 % 1027,6 hPa 0,0 l/m W-SW 0,00 h 102 W/m 30,4 km/h (5 Bft)
04.02.2016 13:00 2,4 C 88 % 1026,0 hPa 0,0 l/m SW 0,00 h 79 W/m 31,3 km/h (5 Bft)
04.02.2016 14:00 2,0 C 90 % 1024,3 hPa 0,0 l/m W-SW 0,00 h 33 W/m 29,4 km/h (5 Bft)
04.02.2016 15:00 1,3 C 94 % 1023,4 hPa 0,2 l/m W-SW 0,00 h 27 W/m 31,5 km/h (5 Bft)
04.02.2016 16:00 1,2 C 94 % 1023,1 hPa 0,2 l/m W-SW 0,00 h 17 W/m 38,3 km/h (5 Bft)
04.02.2016 17:00 1,3 C 94 % 1022,8 hPa 0,0 l/m W-SW 0,00 h 6 W/m 38,2 km/h (5 Bft)
04.02.2016 18:00 1,6 C 94 % 1023,2 hPa 0,0 l/m W-SW 0,00 h 0 W/m 34,4 km/h (5 Bft)
04.02.2016 19:00 1,8 C 94 % 1023,6 hPa 0,0 l/m W-SW 0,00 h 0 W/m 28,4 km/h (4 Bft)
04.02.2016 20:00 2,0 C 95 % 1024,2 hPa 0,2 l/m W-SW 0,00 h 0 W/m 26,9 km/h (4 Bft)
04.02.2016 21:00 2,2 C 95 % 1024,6 hPa 0,4 l/m W-SW 0,00 h 0 W/m 28,7 km/h (4 Bft)
04.02.2016 22:00 2,2 C 96 % 1025,2 hPa 0,2 l/m W-SW 0,00 h 0 W/m 22,8 km/h (4 Bft)
04.02.2016 23:00 2,5 C 96 % 1025,8 hPa 0,0 l/m W-SW 0,00 h 0 W/m 24,5 km/h (4 Bft)
05.02.2016 00:00 2,7 C 96 % 1026,2 hPa 0,0 l/m W 0,00 h 0 W/m 20,8 km/h (4 Bft)
05.02.2016 01:00 2,7 C 97 % 1026,5 hPa 0,4 l/m W-SW 0,00 h 0 W/m 20,4 km/h (4 Bft)
05.02.2016 02:00 2,9 C 97 % 1026,9 hPa 0,4 l/m W-SW 0,00 h 0 W/m 14,9 km/h (3 Bft)
05.02.2016 03:00 3,1 C 97 % 1026,9 hPa 0,0 l/m W-SW 0,00 h 0 W/m 18,8 km/h (3 Bft)
05.02.2016 04:00 2,9 C 97 % 1027,5 hPa 0,0 l/m W-SW 0,00 h 0 W/m 11,6 km/h (2 Bft)
05.02.2016 05:00 3,1 C 97 % 1028,3 hPa 0,0 l/m W-SW 0,00 h 0 W/m 10,6 km/h (2 Bft)
05.02.2016 06:00 3,0 C 97 % 1028,5 hPa 0,0 l/m W-SW 0,00 h 0 W/m 4,4 km/h (1 Bft)
05.02.2016 07:00 2,5 C 97 % 1028,8 hPa 0,2 l/m N 0,00 h 0 W/m 1,2 km/h (1 Bft)
05.02.2016 08:00 2,6 C 98 % 1028,9 hPa 0,0 l/m W-SW 0,00 h 12 W/m 8,1 km/h (2 Bft)
05.02.2016 09:00 3,2 C 98 % 1029,1 hPa 0,0 l/m SW 0,00 h 31 W/m 10,3 km/h (2 Bft)
05.02.2016 10:00 3,8 C 98 % 1029,4 hPa 0,0 l/m SW 0,00 h 65 W/m 9,8 km/h (2 Bft)
05.02.2016 11:00 4,7 C 98 % 1029,5 hPa 0,0 l/m SW 0,00 h 97 W/m 12,8 km/h (3 Bft)
05.02.2016 12:00 5,7 C 96 % 1028,4 hPa 0,0 l/m SW 0,00 h 177 W/m 15,0 km/h (3 Bft)
05.02.2016 13:00 6,2 C 95 % 1027,8 hPa 0,0 l/m SW 0,00 h 127 W/m 18,4 km/h (3 Bft)
05.02.2016 14:00 6,3 C 94 % 1027,3 hPa 0,0 l/m SW 0,00 h 129 W/m 16,9 km/h (3 Bft)
05.02.2016 15:00 6,9 C 91 % 1026,7 hPa 0,0 l/m SW 0,92 h 286 W/m 13,5 km/h (3 Bft)
05.02.2016 16:00 6,7 C 89 % 1026,1 hPa 0,0 l/m W 0,67 h 95 W/m 7,3 km/h (2 Bft)
05.02.2016 17:00 5,3 C 92 % 1025,8 hPa 0,0 l/m N 0,08 h 12 W/m 1,5 km/h (1 Bft)
05.02.2016 18:00 4,7 C 93 % 1025,7 hPa 0,0 l/m N 0,00 h 0 W/m 0,0 km/h (0 Bft)
05.02.2016 19:00 4,4 C 91 % 1025,3 hPa 0,0 l/m N 0,00 h 0 W/m 0,0 km/h (0 Bft)
05.02.2016 20:00 2,9 C 91 % 1024,7 hPa 0,0 l/m N 0,00 h 0 W/m 0,0 km/h (0 Bft)
05.02.2016 21:00 1,7 C 93 % 1024,1 hPa 0,0 l/m N 0,00 h 0 W/m 0,0 km/h (0 Bft)
05.02.2016 22:00 1,2 C 95 % 1023,7 hPa 0,0 l/m N 0,00 h 0 W/m 0,0 km/h (0 Bft)
05.02.2016 23:00 0,7 C 95 % 1023,4 hPa 0,0 l/m N 0,00 h 0 W/m 0,0 km/h (0 Bft)
06.02.2016 00:00 -0,2 C 96 % 1023,3 hPa 0,0 l/m N 0,00 h 0 W/m 0,0 km/h (0 Bft)
06.02.2016 01:00 -0,9 C 96 % 1023,1 hPa 0,0 l/m N 0,00 h 0 W/m 0,0 km/h (0 Bft)
06.02.2016 02:00 -1,5 C 96 % 1022,7 hPa 0,0 l/m N 0,00 h 0 W/m 0,0 km/h (0 Bft)
06.02.2016 03:00 -1,4 C 97 % 1022,2 hPa 0,0 l/m N 0,00 h 0 W/m 0,0 km/h (0 Bft)
06.02.2016 04:00 -0,6 C 98 % 1021,9 hPa 0,0 l/m N 0,00 h 0 W/m 0,0 km/h (0 Bft)
06.02.2016 05:00 -0,6 C 98 % 1021,5 hPa 0,0 l/m N 0,00 h 0 W/m 0,0 km/h (0 Bft)
06.02.2016 06:00 -1,2 C 97 % 1021,0 hPa 0,0 l/m N 0,00 h 0 W/m 0,0 km/h (0 Bft)
06.02.2016 07:00 -1,6 C 98 % 1021,0 hPa 0,0 l/m N 0,00 h 6 W/m 0,0 km/h (0 Bft)
06.02.2016 08:00 -1,7 C 98 % 1021,3 hPa 0,0 l/m N 0,00 h 37 W/m 0,0 km/h (0 Bft)
06.02.2016 09:00 -0,6 C 99 % 1021,2 hPa 0,0 l/m N 0,58 h 143 W/m 0,0 km/h (0 Bft)
06.02.2016 10:00 1,7 C 99 % 1020,9 hPa 0,2 l/m W 1,00 h 258 W/m 4,4 km/h (1 Bft)
06.02.2016 11:00 4,0 C 97 % 1020,3 hPa 0,0 l/m S-SW 0,83 h 316 W/m 11,0 km/h (2 Bft)
06.02.2016 12:00 5,5 C 91 % 1019,3 hPa 0,0 l/m S 0,92 h 342 W/m 14,0 km/h (3 Bft)
06.02.2016 13:00 6,8 C 84 % 1018,2 hPa 0,0 l/m S 0,83 h 304 W/m 12,6 km/h (3 Bft)
06.02.2016 14:00 8,0 C 81 % 1016,9 hPa 0,0 l/m S-SW 1,00 h 266 W/m 11,3 km/h (2 Bft)
06.02.2016 15:00 8,5 C 77 % 1015,9 hPa 0,0 l/m SW 0,83 h 170 W/m 9,4 km/h (2 Bft)
06.02.2016 16:00 8,0 C 80 % 1014,7 hPa 0,0 l/m SW 0,17 h 68 W/m 3,7 km/h (1 Bft)
06.02.2016 17:00 5,9 C 87 % 1013,7 hPa 0,0 l/m N 0,08 h 13 W/m 0,0 km/h (0 Bft)
06.02.2016 18:00 4,4 C 89 % 1012,8 hPa 0,0 l/m SW 0,00 h 0 W/m 0,9 km/h (0 Bft)
06.02.2016 19:00 3,2 C 89 % 1012,0 hPa 0,0 l/m N 0,00 h 0 W/m 0,0 km/h (0 Bft)
06.02.2016 20:00 2,0 C 91 % 1011,2 hPa 0,0 l/m N 0,00 h 0 W/m 0,0 km/h (0 Bft)
06.02.2016 21:00 1,3 C 93 % 1010,5 hPa 0,0 l/m N 0,00 h 0 W/m 0,0 km/h (0 Bft)
06.02.2016 22:00 0,7 C 93 % 1009,5 hPa 0,0 l/m SW 0,00 h 0 W/m 2,1 km/h (1 Bft)
06.02.2016 23:00 1,8 C 93 % 1008,7 hPa 0,0 l/m S-SW 0,00 h 0 W/m 8,3 km/h (2 Bft)
07.02.2016 00:00 8,3 C 63 % 1007,9 hPa 0,0 l/m SW 0,00 h 0 W/m 29,6 km/h (5 Bft)
07.02.2016 01:00 9,9 C 54 % 1007,4 hPa 0,0 l/m W-SW 0,00 h 0 W/m 33,5 km/h (5 Bft)
07.02.2016 02:00 9,9 C 53 % 1006,7 hPa 0,0 l/m W-SW 0,00 h 0 W/m 25,9 km/h (4 Bft)
07.02.2016 03:00 9,2 C 56 % 1006,2 hPa 0,0 l/m SW 0,00 h 0 W/m 13,7 km/h (3 Bft)
07.02.2016 04:00 5,4 C 70 % 1005,6 hPa 0,0 l/m N 0,00 h 0 W/m 1,9 km/h (1 Bft)
07.02.2016 05:00 3,0 C 80 % 1005,1 hPa 0,0 l/m N 0,00 h 0 W/m 0,0 km/h (0 Bft)
07.02.2016 06:00 2,1 C 86 % 1004,5 hPa 0,0 l/m N 0,00 h 0 W/m 1,6 km/h (1 Bft)
07.02.2016 07:00 1,9 C 89 % 1003,8 hPa 0,0 l/m N 0,00 h 5 W/m 4,7 km/h (1 Bft)
07.02.2016 08:00 1,4 C 90 % 1003,6 hPa 0,0 l/m N 0,00 h 19 W/m 2,8 km/h (1 Bft)
07.02.2016 09:00 1,4 C 92 % 1002,9 hPa 0,0 l/m N 0,00 h 41 W/m 0,5 km/h (0 Bft)
07.02.2016 10:00 2,3 C 92 % 1002,2 hPa 0,0 l/m N-NO 0,00 h 59 W/m 2,4 km/h (1 Bft)
07.02.2016 11:00 4,8 C 85 % 1002,2 hPa 0,0 l/m N-NO 0,00 h 81 W/m 5,1 km/h (1 Bft)
07.02.2016 12:00 4,9 C 84 % 1002,5 hPa 0,0 l/m N 0,00 h 85 W/m 11,9 km/h (2 Bft)
07.02.2016 13:00 5,3 C 81 % 1003,4 hPa 0,0 l/m N 0,00 h 92 W/m 13,7 km/h (3 Bft)
07.02.2016 14:00 8,6 C 74 % 1004,6 hPa 0,0 l/m W-NW 0,92 h 259 W/m 14,9 km/h (3 Bft)
07.02.2016 15:00 9,3 C 74 % 1005,8 hPa 0,0 l/m W 0,00 h 43 W/m 15,0 km/h (3 Bft)
07.02.2016 16:00 8,1 C 79 % 1007,3 hPa 0,0 l/m W-NW 0,00 h 6 W/m 18,8 km/h (3 Bft)
07.02.2016 17:00 6,3 C 83 % 1008,6 hPa 0,0 l/m W 0,00 h 6 W/m 12,4 km/h (3 Bft)
07.02.2016 18:00 5,1 C 88 % 1009,6 hPa 0,0 l/m W-SW 0,00 h 0 W/m 17,2 km/h (3 Bft)
07.02.2016 19:00 4,4 C 89 % 1010,6 hPa 0,2 l/m W-SW 0,00 h 0 W/m 17,7 km/h (3 Bft)
07.02.2016 20:00 3,9 C 93 % 1011,1 hPa 0,4 l/m W-SW 0,00 h 0 W/m 14,0 km/h (3 Bft)
07.02.2016 21:00 3,7 C 95 % 1011,6 hPa 0,0 l/m SW 0,00 h 0 W/m 12,9 km/h (3 Bft)
07.02.2016 22:00 3,5 C 96 % 1011,8 hPa 0,0 l/m SW 0,00 h 0 W/m 16,0 km/h (3 Bft)
07.02.2016 23:00 3,3 C 96 % 1011,6 hPa 0,0 l/m SW 0,00 h 0 W/m 15,8 km/h (3 Bft)
Min-Datum _ 06.02.16 07.02.16 07.02.16 - - - - 02.02.16
_ Min-Zeit 07:45 01:25 10:40 - - - - 03:20
Minimum _ -1,8 C 53 % 1002,0 hPa - - - - 0,0 km/h (0 Bft)
Max-Datum _ 01.02.16 05.02.16 05.02.16 03.02.16 - 01.02.16 02.02.16 01.02.16
_ Max-Zeit 11:50 12:40 11:00 06:00 - 10:45 12:35 04:50
Maximum _ 13,0 C 100 % 1029,6 hPa 2,0 l/m - 0,08 h 566 W/m 53,1 km/h
W-SW (7 Bft)
Durchschnitt _ 4,8 C 89 % 1019,9 hPa #12,6 l/m W-SW #14:00 h 104 W/m 16,3 km/h (3 Bft)